createdAt,value
2022-10-17T00:00:08.354Z,101595.69
2022-10-17T00:03:11.970Z,101613.88
2022-10-17T00:06:15.198Z,101606.22
2022-10-17T00:09:17.670Z,101616.84
2022-10-17T00:12:19.872Z,101599.72
2022-10-17T00:15:22.488Z,101620.56
2022-10-17T00:18:25.207Z,101608.16
2022-10-17T00:21:27.790Z,101614.31
2022-10-17T00:24:31.682Z,101615.44
2022-10-17T00:27:39.114Z,101623.78
2022-10-17T00:30:41.928Z,101607.78
2022-10-17T00:33:44.672Z,101605.16
2022-10-17T00:36:46.904Z,101622.63
2022-10-17T00:39:49.632Z,101605.81
2022-10-17T00:42:53.294Z,101620.00
2022-10-17T00:45:56.865Z,101599.28
2022-10-17T00:49:03.107Z,101628.94
2022-10-17T00:52:11.694Z,101607.88
2022-10-17T00:55:20.036Z,101621.41
2022-10-17T00:58:22.842Z,101607.72
2022-10-17T01:01:25.431Z,101622.38
2022-10-17T01:04:28.010Z,101610.97
2022-10-17T01:07:34.664Z,101600.19
2022-10-17T01:10:48.131Z,101609.00
2022-10-17T01:13:58.297Z,101604.25
2022-10-17T01:17:11.404Z,101623.63
2022-10-17T01:20:39.606Z,101603.72
2022-10-17T01:24:00.901Z,101620.69
2022-10-17T01:27:34.138Z,101620.19
2022-10-17T01:31:08.051Z,101615.78
2022-10-17T01:34:18.893Z,101616.41
2022-10-17T01:37:41.071Z,101613.47
2022-10-17T01:40:52.705Z,101616.75
2022-10-17T01:44:13.129Z,101606.72
2022-10-17T01:47:21.866Z,101614.38
2022-10-17T01:50:31.231Z,101599.19
2022-10-17T01:53:42.824Z,101620.53
2022-10-17T01:56:47.771Z,101618.91
2022-10-17T01:59:52.997Z,101610.38
2022-10-17T02:03:00.254Z,101612.13
2022-10-17T02:06:04.619Z,101611.62
2022-10-17T02:09:23.193Z,101640.44
2022-10-17T02:12:52.035Z,101629.41
2022-10-17T02:16:06.258Z,101599.22
2022-10-17T02:19:21.040Z,101629.84
2022-10-17T02:22:31.969Z,101613.50
2022-10-17T02:25:41.623Z,101625.88
2022-10-17T02:28:58.803Z,101625.09
2022-10-17T02:32:08.810Z,101608.56
2022-10-17T02:35:15.590Z,101636.87
2022-10-17T02:38:18.661Z,101625.06
2022-10-17T02:41:24.018Z,101637.31
2022-10-17T02:44:28.669Z,101621.41
2022-10-17T02:47:41.750Z,101630.19
2022-10-17T02:50:57.401Z,101647.16
2022-10-17T02:54:17.147Z,101655.44
2022-10-17T02:57:31.065Z,101652.47
2022-10-17T03:00:35.411Z,101639.84
2022-10-17T03:03:38.107Z,101645.34
2022-10-17T03:06:41.364Z,101659.03
2022-10-17T03:09:43.919Z,101640.44
2022-10-17T03:12:46.180Z,101640.44
2022-10-17T03:15:48.772Z,101637.19
2022-10-17T03:18:51.322Z,101639.44
2022-10-17T03:21:54.363Z,101644.75
2022-10-17T03:24:57.263Z,101652.75
2022-10-17T03:28:01.511Z,101663.25
2022-10-17T03:31:11.180Z,101679.75
2022-10-17T03:34:16.707Z,101677.28
2022-10-17T03:37:19.089Z,101674.00
2022-10-17T03:40:22.484Z,101659.63
2022-10-17T03:43:24.716Z,101661.97
2022-10-17T03:46:27.195Z,101677.78
2022-10-17T03:49:29.999Z,101685.47
2022-10-17T03:52:32.577Z,101694.22
2022-10-17T03:55:35.670Z,101684.56
2022-10-17T03:58:38.492Z,101688.44
2022-10-17T04:01:41.572Z,101687.94
2022-10-17T04:04:44.367Z,101708.16
2022-10-17T04:07:46.608Z,101692.41
2022-10-17T04:10:50.043Z,101711.00
2022-10-17T04:13:57.146Z,101694.19
2022-10-17T04:17:00.838Z,101719.28
2022-10-17T04:20:03.828Z,101707.97
2022-10-17T04:23:06.518Z,101722.66
2022-10-17T04:26:09.768Z,101720.00
2022-10-17T04:29:12.285Z,101724.41
2022-10-17T04:32:15.214Z,101732.69
2022-10-17T04:35:18.035Z,101705.28
2022-10-17T04:38:23.743Z,101735.13
2022-10-17T04:41:28.905Z,101722.25
2022-10-17T04:44:33.670Z,101724.00
2022-10-17T04:47:36.439Z,101736.88
2022-10-17T04:50:38.697Z,101715.91
2022-10-17T04:53:43.406Z,101731.44
2022-10-17T04:56:47.179Z,101746.38
2022-10-17T04:59:50.059Z,101740.66
2022-10-17T05:02:53.951Z,101749.41
2022-10-17T05:05:56.455Z,101733.69
2022-10-17T05:08:59.139Z,101739.19
2022-10-17T05:12:04.293Z,101733.69
2022-10-17T05:15:10.772Z,101728.78
2022-10-17T05:18:13.346Z,101740.84
2022-10-17T05:21:17.328Z,101765.97
2022-10-17T05:24:19.859Z,101761.06
2022-10-17T05:27:23.429Z,101755.97
2022-10-17T05:30:25.924Z,101780.31
2022-10-17T05:33:30.566Z,101764.97
2022-10-17T05:36:33.159Z,101758.63
2022-10-17T05:39:35.767Z,101783.56
2022-10-17T05:45:44.012Z,101781.31
2022-10-17T05:48:47.834Z,101800.34
2022-10-17T05:51:50.080Z,101798.09
2022-10-17T05:54:52.622Z,101803.00
2022-10-17T05:57:55.388Z,101806.87
2022-10-17T06:01:00.673Z,101818.97
2022-10-17T06:04:03.361Z,101813.63
2022-10-17T06:07:06.682Z,101792.78
2022-10-17T06:10:12.365Z,101811.78
2022-10-17T06:13:15.393Z,101823.66
2022-10-17T06:16:18.108Z,101816.31
2022-10-17T06:19:20.622Z,101841.16
2022-10-17T06:22:23.592Z,101845.25
2022-10-17T06:25:26.055Z,101832.88
2022-10-17T06:28:29.277Z,101832.78
2022-10-17T06:31:33.664Z,101853.09
2022-10-17T06:34:38.916Z,101852.50
2022-10-17T06:37:41.751Z,101865.91
2022-10-17T06:40:44.779Z,101848.50
2022-10-17T06:43:47.768Z,101872.12
2022-10-17T06:46:59.793Z,101878.28
2022-10-17T06:50:02.238Z,101881.13
2022-10-17T06:53:05.232Z,101863.03
2022-10-17T06:56:10.890Z,101885.81
2022-10-17T06:59:15.513Z,101884.25
2022-10-17T07:02:20.400Z,101881.19
2022-10-17T07:05:24.541Z,101874.28
2022-10-17T07:08:27.510Z,101894.22
2022-10-17T07:11:30.084Z,101901.34
2022-10-17T07:14:33.025Z,101887.50
2022-10-17T07:17:35.522Z,101894.87
2022-10-17T07:20:38.076Z,101901.81
2022-10-17T07:23:41.479Z,101913.31
2022-10-17T07:26:44.899Z,101912.53
2022-10-17T07:29:49.857Z,101904.59
2022-10-17T07:32:57.862Z,101897.72
2022-10-17T07:36:01.520Z,101911.87
2022-10-17T07:39:03.927Z,101904.41
2022-10-17T07:42:07.820Z,101905.63
2022-10-17T07:45:10.428Z,101924.03
2022-10-17T07:48:12.874Z,101921.28
2022-10-17T07:51:28.592Z,101907.28
2022-10-17T07:54:32.938Z,101915.19
2022-10-17T07:57:35.669Z,101909.19
2022-10-17T08:00:38.377Z,101906.03
2022-10-17T08:03:42.874Z,101908.25
2022-10-17T08:06:45.225Z,101924.63
2022-10-17T08:09:47.904Z,101916.25
2022-10-17T08:12:50.137Z,101939.34
2022-10-17T08:15:52.717Z,101938.63
2022-10-17T08:18:55.058Z,101944.91
2022-10-17T08:21:59.158Z,101926.38
2022-10-17T08:25:01.407Z,101950.72
2022-10-17T08:28:03.985Z,101947.47
2022-10-17T08:31:09.441Z,101963.03
2022-10-17T08:34:11.950Z,101947.16
2022-10-17T08:37:14.689Z,101964.56
2022-10-17T08:40:22.503Z,101943.81
2022-10-17T08:43:35.596Z,101946.66
2022-10-17T08:46:42.357Z,101949.63
2022-10-17T08:49:57.368Z,101945.34
2022-10-17T08:53:38.672Z,101958.13
2022-10-17T08:56:49.247Z,101957.75
2022-10-17T08:59:54.360Z,101946.22
2022-10-17T09:03:24.621Z,101959.66
2022-10-17T09:06:39.570Z,101961.59
2022-10-17T09:10:17.356Z,101956.03
2022-10-17T09:14:01.734Z,101941.34
2022-10-17T09:17:32.835Z,101954.59
2022-10-17T09:20:59.183Z,101957.19
2022-10-17T09:24:09.610Z,101936.72
2022-10-17T09:27:40.683Z,101919.50
2022-10-17T09:30:45.530Z,101936.06
2022-10-17T09:33:55.249Z,101918.16
2022-10-17T09:37:02.372Z,101929.78
2022-10-17T09:40:08.793Z,101937.63
2022-10-17T09:43:15.291Z,101939.66
2022-10-17T09:46:36.746Z,101940.62
2022-10-17T09:49:45.036Z,101922.84
2022-10-17T09:52:49.391Z,101922.84
2022-10-17T09:55:58.104Z,101933.41
2022-10-17T09:59:00.698Z,101933.41
2022-10-17T10:02:20.360Z,101926.38
2022-10-17T10:05:23.101Z,101925.63
2022-10-17T10:08:37.882Z,101915.88
2022-10-17T10:11:52.381Z,101913.09
2022-10-17T10:14:55.504Z,101911.16
2022-10-17T10:17:58.471Z,101923.41
2022-10-17T10:21:25.412Z,101919.94
2022-10-17T10:24:31.036Z,101903.09
2022-10-17T10:27:33.899Z,101911.09
2022-10-17T10:30:39.788Z,101914.63
2022-10-17T10:33:47.014Z,101893.75
2022-10-17T10:37:17.137Z,101900.22
2022-10-17T10:40:32.127Z,101897.00
2022-10-17T10:43:34.597Z,101907.09
2022-10-17T10:46:36.860Z,101889.31
2022-10-17T10:49:39.691Z,101880.84
2022-10-17T10:53:18.061Z,101903.41
2022-10-17T10:56:49.917Z,101899.81
2022-10-17T11:00:02.534Z,101881.66
2022-10-17T11:03:24.476Z,101895.81
2022-10-17T11:06:31.276Z,101887.28
2022-10-17T11:09:42.668Z,101886.47
2022-10-17T11:13:03.672Z,101902.50
2022-10-17T11:16:25.070Z,101892.75
2022-10-17T11:19:56.459Z,101893.56
2022-10-17T11:23:09.816Z,101887.37
2022-10-17T11:26:26.935Z,101868.44
2022-10-17T11:29:32.804Z,101885.06
2022-10-17T11:32:41.253Z,101860.87
2022-10-17T11:35:47.403Z,101876.53
2022-10-17T11:39:20.853Z,101875.69
2022-10-17T11:42:33.113Z,101866.09
2022-10-17T11:45:42.581Z,101856.47
2022-10-17T11:49:24.785Z,101850.81
2022-10-17T11:52:55.872Z,101858.22
2022-10-17T11:56:01.132Z,101862.69
2022-10-17T11:59:28.531Z,101847.75
2022-10-17T12:02:44.399Z,101851.81
2022-10-17T12:05:50.670Z,101825.16
2022-10-17T12:09:08.714Z,101839.25
2022-10-17T12:12:11.343Z,101831.62
2022-10-17T12:15:13.519Z,101848.56
2022-10-17T12:18:17.456Z,101842.53
2022-10-17T12:21:19.765Z,101823.56
2022-10-17T12:24:54.894Z,101836.47
2022-10-17T12:28:06.163Z,101800.16
2022-10-17T12:31:19.041Z,101834.03
2022-10-17T12:34:24.226Z,101823.59
2022-10-17T12:37:43.444Z,101822.78
2022-10-17T12:40:49.086Z,101817.94
2022-10-17T12:43:54.429Z,101817.91
2022-10-17T12:47:08.570Z,101818.66
2022-10-17T12:50:48.976Z,101819.50
2022-10-17T12:53:59.114Z,101810.25
2022-10-17T12:57:01.719Z,101794.00
2022-10-17T13:00:49.832Z,101809.87
2022-10-17T13:04:05.838Z,101808.59
2022-10-17T13:07:19.100Z,101806.16
2022-10-17T13:10:23.588Z,101811.34
2022-10-17T13:13:33.731Z,101807.63
2022-10-17T13:16:43.645Z,101800.50
2022-10-17T13:19:46.979Z,101801.91
2022-10-17T13:22:49.648Z,101785.75
2022-10-17T13:26:22.005Z,101781.91
2022-10-17T13:29:25.901Z,101799.84
2022-10-17T13:32:36.982Z,101775.81
2022-10-17T13:36:00.357Z,101791.12
2022-10-17T13:39:13.089Z,101773.22
2022-10-17T13:42:29.286Z,101793.59
2022-10-17T13:45:34.756Z,101791.44
2022-10-17T13:48:38.209Z,101797.31
2022-10-17T13:51:44.986Z,101782.72
2022-10-17T13:54:53.204Z,101780.69
2022-10-17T13:57:56.168Z,101773.28
2022-10-17T14:00:59.174Z,101774.44
2022-10-17T14:04:09.048Z,101789.00
2022-10-17T14:07:26.339Z,101761.81
2022-10-17T14:10:34.586Z,101755.75
2022-10-17T14:13:36.874Z,101785.09
2022-10-17T14:16:42.393Z,101780.81
2022-10-17T14:19:51.483Z,101753.56
2022-10-17T14:23:21.605Z,101776.44
2022-10-17T14:26:24.056Z,101756.44
2022-10-17T14:29:53.528Z,101751.00
2022-10-17T14:32:58.503Z,101767.84
2022-10-17T14:36:02.632Z,101771.97
2022-10-17T14:39:13.361Z,101772.22
2022-10-17T14:42:21.794Z,101777.31
2022-10-17T14:45:28.684Z,101770.25
2022-10-17T14:48:33.985Z,101747.41
2022-10-17T14:51:50.206Z,101765.47
2022-10-17T14:55:12.199Z,101760.16
2022-10-17T14:58:22.708Z,101766.44
2022-10-17T15:01:25.235Z,101764.66
2022-10-17T15:04:27.423Z,101760.97
2022-10-17T15:07:29.943Z,101762.44
2022-10-17T15:10:35.596Z,101748.91
2022-10-17T15:13:43.304Z,101757.69
2022-10-17T15:16:47.747Z,101746.88
2022-10-17T15:19:50.833Z,101762.22
2022-10-17T15:22:54.270Z,101762.00
2022-10-17T15:25:56.776Z,101772.37
2022-10-17T15:28:59.556Z,101765.72
2022-10-17T15:32:02.135Z,101769.66
2022-10-17T15:35:04.584Z,101766.72
2022-10-17T15:38:07.444Z,101757.53
2022-10-17T15:41:11.446Z,101778.00
2022-10-17T15:44:14.561Z,101780.62
2022-10-17T15:47:23.351Z,101769.75
2022-10-17T15:50:26.175Z,101789.44
2022-10-17T15:53:28.549Z,101789.72
2022-10-17T15:56:42.211Z,101783.38
2022-10-17T15:59:46.947Z,101782.28
2022-10-17T16:02:50.428Z,101769.28
2022-10-17T16:05:52.945Z,101802.91
2022-10-17T16:08:55.170Z,101807.97
2022-10-17T16:11:57.706Z,101796.81
2022-10-17T16:14:59.924Z,101809.19
2022-10-17T16:18:05.872Z,101815.03
2022-10-17T16:21:14.406Z,101801.94
2022-10-17T16:24:17.788Z,101795.22
2022-10-17T16:27:20.051Z,101788.22
2022-10-17T16:30:24.691Z,101793.25
2022-10-17T16:33:26.944Z,101816.97
2022-10-17T16:36:29.515Z,101784.00
2022-10-17T16:39:31.786Z,101794.47
2022-10-17T16:42:34.363Z,101814.44
2022-10-17T16:45:36.616Z,101798.09
2022-10-17T16:51:42.427Z,101802.66
2022-10-17T16:54:44.927Z,101815.41
2022-10-17T16:57:48.993Z,101825.31
2022-10-17T17:00:52.099Z,101833.59
2022-10-17T17:03:54.417Z,101824.62
2022-10-17T17:06:57.128Z,101831.25
2022-10-17T17:09:59.370Z,101827.53
2022-10-17T17:13:03.231Z,101805.47
2022-10-17T17:16:11.506Z,101826.37
2022-10-17T17:19:16.905Z,101813.50
2022-10-17T17:22:19.246Z,101840.31
2022-10-17T17:25:22.800Z,101820.97
2022-10-17T17:28:26.403Z,101821.56
2022-10-17T17:31:31.396Z,101832.84
2022-10-17T17:34:37.315Z,101844.91
2022-10-17T17:37:39.845Z,101839.06
2022-10-17T17:40:50.667Z,101841.13
2022-10-17T17:43:54.612Z,101834.97
2022-10-17T17:46:58.443Z,101829.53
2022-10-17T17:50:02.367Z,101840.16
2022-10-17T17:53:05.730Z,101828.78
2022-10-17T17:56:17.822Z,101830.16
2022-10-17T17:59:20.128Z,101830.25
2022-10-17T18:02:22.994Z,101826.16
2022-10-17T18:05:26.840Z,101839.63
2022-10-17T18:08:29.201Z,101819.13
2022-10-17T18:11:32.538Z,101828.88
2022-10-17T18:14:34.886Z,101809.34
2022-10-17T18:17:37.952Z,101794.28
2022-10-17T18:20:42.413Z,101829.28
2022-10-17T18:23:46.624Z,101835.88
2022-10-17T18:26:49.947Z,101829.72
2022-10-17T18:29:52.446Z,101839.87
2022-10-17T18:32:54.674Z,101828.50
2022-10-17T18:35:58.423Z,101836.38
2022-10-17T18:39:01.780Z,101832.97
2022-10-17T18:42:04.553Z,101831.19
2022-10-17T18:45:11.609Z,101816.25
2022-10-17T18:48:14.124Z,101829.03
2022-10-17T18:51:20.469Z,101837.41
2022-10-17T18:54:24.425Z,101840.03
2022-10-17T18:57:26.790Z,101834.88
2022-10-17T19:00:30.384Z,101829.38
2022-10-17T19:03:32.949Z,101762.56
2022-10-17T19:06:37.401Z,101809.34
2022-10-17T19:09:39.669Z,101819.78
2022-10-17T19:12:42.187Z,101817.56
2022-10-17T19:15:44.525Z,101832.88
2022-10-17T19:18:51.826Z,101838.62
2022-10-17T19:21:54.103Z,101812.56
2022-10-17T19:24:56.700Z,101826.06
2022-10-17T19:27:59.144Z,101812.75
2022-10-17T19:31:01.772Z,101817.81
2022-10-17T19:34:04.517Z,101823.56
2022-10-17T19:37:07.271Z,101828.41
2022-10-17T19:40:10.269Z,101824.22
2022-10-17T19:43:12.780Z,101827.19
2022-10-17T19:46:18.463Z,101830.59
2022-10-17T19:49:21.155Z,101831.25
2022-10-17T19:52:23.459Z,101823.13
2022-10-17T19:55:25.936Z,101819.34
2022-10-17T19:58:28.796Z,101802.87
2022-10-17T20:01:34.409Z,101815.12
2022-10-17T20:04:42.094Z,101809.44
2022-10-17T20:07:53.765Z,101829.00
2022-10-17T20:10:56.297Z,101837.31
2022-10-17T20:14:00.208Z,101835.06
2022-10-17T20:17:02.753Z,101804.03
2022-10-17T20:20:08.748Z,101804.88
2022-10-17T20:23:30.005Z,101835.38
2022-10-17T20:26:38.229Z,101837.50
2022-10-17T20:29:41.864Z,101835.38
2022-10-17T20:32:44.213Z,101836.34
2022-10-17T20:35:48.767Z,101823.75
2022-10-17T20:38:55.794Z,101841.06
2022-10-17T20:41:58.359Z,101839.59
2022-10-17T20:45:00.627Z,101837.97
2022-10-17T20:48:03.966Z,101839.25
2022-10-17T20:51:10.503Z,101821.31
2022-10-17T20:54:13.138Z,101841.56
2022-10-17T20:57:15.356Z,101837.28
2022-10-17T21:00:17.975Z,101822.94
2022-10-17T21:03:20.415Z,101831.09
2022-10-17T21:06:23.861Z,101835.16
2022-10-17T21:09:26.279Z,101831.91
2022-10-17T21:12:36.770Z,101831.44
2022-10-17T21:15:48.342Z,101821.31
2022-10-17T21:18:53.328Z,101820.47
2022-10-17T21:21:55.560Z,101830.59
2022-10-17T21:24:58.089Z,101819.81
2022-10-17T21:28:00.284Z,101817.19
2022-10-17T21:31:12.160Z,101816.53
2022-10-17T21:34:17.726Z,101841.47
2022-10-17T21:37:20.497Z,101813.75
2022-10-17T21:40:22.994Z,101829.87
2022-10-17T21:43:25.517Z,101839.00
2022-10-17T21:46:28.557Z,101833.97
2022-10-17T21:49:31.161Z,101816.00
2022-10-17T21:52:33.604Z,101826.09
2022-10-17T21:55:37.595Z,101832.47
2022-10-17T21:58:40.798Z,101827.56
2022-10-17T22:01:45.481Z,101831.78
2022-10-17T22:04:48.166Z,101815.28
2022-10-17T22:07:50.387Z,101812.31
2022-10-17T22:10:52.894Z,101811.50
2022-10-17T22:14:01.238Z,101831.75
2022-10-17T22:17:03.804Z,101822.12
2022-10-17T22:20:06.639Z,101821.13
2022-10-17T22:23:09.104Z,101821.75
2022-10-17T22:26:13.433Z,101821.75
2022-10-17T22:29:16.478Z,101805.22
2022-10-17T22:32:21.668Z,101818.28
2022-10-17T22:35:25.204Z,101793.63
2022-10-17T22:38:28.102Z,101819.59
2022-10-17T22:41:30.647Z,101819.41
2022-10-17T22:44:33.076Z,101792.63
2022-10-17T22:47:35.592Z,101816.25
2022-10-17T22:50:41.709Z,101818.88
2022-10-17T22:53:44.410Z,101818.66
2022-10-17T22:56:46.660Z,101812.66
2022-10-17T22:59:49.138Z,101821.56
2022-10-17T23:02:54.884Z,101821.56
2022-10-17T23:05:57.788Z,101797.88
2022-10-17T23:09:00.021Z,101813.41
2022-10-17T23:12:02.574Z,101811.78
2022-10-17T23:15:05.167Z,101776.69
2022-10-17T23:18:09.713Z,101795.78
2022-10-17T23:21:12.001Z,101798.56
2022-10-17T23:24:15.567Z,101774.06
2022-10-17T23:27:17.827Z,101774.88
2022-10-17T23:30:20.340Z,101780.09
2022-10-17T23:33:22.546Z,101771.94
2022-10-17T23:36:25.159Z,101795.75
2022-10-17T23:39:27.592Z,101784.50
2022-10-17T23:42:30.269Z,101785.63
2022-10-17T23:45:36.146Z,101774.94
2022-10-17T23:48:40.476Z,101782.00
2022-10-17T23:51:42.695Z,101762.41
2022-10-17T23:54:45.156Z,101782.13
2022-10-17T23:57:47.392Z,101757.62
